createdAt,value
2023-02-11T00:00:50.027Z,90.40
2023-02-11T00:04:51.656Z,89.81
2023-02-11T00:08:54.951Z,90.36
2023-02-11T00:12:56.458Z,89.69
2023-02-11T00:16:57.890Z,90.08
2023-02-11T00:20:59.282Z,90.00
2023-02-11T00:25:02.016Z,89.75
2023-02-11T00:29:03.982Z,89.46
2023-02-11T00:33:05.311Z,89.16
2023-02-11T00:37:08.417Z,89.58
2023-02-11T00:41:11.276Z,90.05
2023-02-11T00:45:12.786Z,89.64
2023-02-11T00:49:14.317Z,90.83
2023-02-11T00:53:15.653Z,90.75
2023-02-11T00:57:18.379Z,90.40
2023-02-11T01:01:20.066Z,90.38
2023-02-11T01:05:21.511Z,90.47
2023-02-11T01:09:22.922Z,89.97
2023-02-11T01:13:26.184Z,90.45
2023-02-11T01:17:27.565Z,89.86
2023-02-11T01:21:28.933Z,89.77
2023-02-11T01:25:30.293Z,90.17
2023-02-11T01:29:33.073Z,89.41
2023-02-11T01:33:34.464Z,89.28
2023-02-11T01:37:35.942Z,89.74
2023-02-11T01:41:37.558Z,89.58
2023-02-11T01:45:53.526Z,89.75
2023-02-11T01:49:56.570Z,90.21
2023-02-11T01:53:58.452Z,90.05
2023-02-11T01:58:02.412Z,89.93
2023-02-11T02:02:08.449Z,89.51
2023-02-11T02:06:15.436Z,89.74
2023-02-11T02:10:18.827Z,90.00
2023-02-11T02:14:20.296Z,89.80
2023-02-11T02:18:28.291Z,89.99
2023-02-11T02:22:48.090Z,89.97
2023-02-11T02:27:13.877Z,89.50
2023-02-11T02:31:25.913Z,88.93
2023-02-11T02:35:36.171Z,88.23
2023-02-11T02:39:37.848Z,88.53
2023-02-11T02:43:40.954Z,88.60
2023-02-11T02:47:42.495Z,89.32
2023-02-11T02:52:08.188Z,89.92
2023-02-11T02:56:13.773Z,89.86
2023-02-11T03:00:21.701Z,89.40
2023-02-11T03:04:26.268Z,89.61
2023-02-11T03:08:30.501Z,89.18
2023-02-11T03:12:34.875Z,88.93
2023-02-11T03:16:36.777Z,89.05
2023-02-11T03:20:40.441Z,89.08
2023-02-11T03:24:42.024Z,89.65
2023-02-11T03:28:49.454Z,88.89
2023-02-11T03:32:51.989Z,89.58
2023-02-11T03:36:56.350Z,89.58
2023-02-11T03:40:58.625Z,89.46
2023-02-11T03:45:03.588Z,89.19
2023-02-11T03:49:09.102Z,89.55
2023-02-11T03:53:11.915Z,89.14
2023-02-11T03:57:13.297Z,89.15
2023-02-11T04:01:16.160Z,89.27
2023-02-11T04:05:17.687Z,89.35
2023-02-11T04:09:19.006Z,88.92
2023-02-11T04:13:20.445Z,89.26
2023-02-11T04:17:23.245Z,89.51
2023-02-11T04:21:24.667Z,89.24
2023-02-11T04:25:26.033Z,88.87
2023-02-11T04:29:27.492Z,88.80
2023-02-11T04:33:30.227Z,88.06
2023-02-11T04:37:31.645Z,87.98
2023-02-11T04:41:32.992Z,88.07
2023-02-11T04:45:34.410Z,87.26
2023-02-11T04:49:37.206Z,87.16
2023-02-11T04:53:38.571Z,86.41
2023-02-11T04:57:39.988Z,84.66
2023-02-11T05:01:41.361Z,84.43
2023-02-11T05:05:44.151Z,83.58
2023-02-11T05:09:45.561Z,82.56
2023-02-11T05:13:47.236Z,83.05
2023-02-11T05:17:48.596Z,82.88
2023-02-11T05:22:02.233Z,83.07
2023-02-11T05:26:04.425Z,82.37
2023-02-11T05:30:06.368Z,82.75
2023-02-11T05:34:07.799Z,82.69
2023-02-11T05:38:10.548Z,81.67
2023-02-11T05:42:11.888Z,81.67
2023-02-11T05:46:13.443Z,81.23
2023-02-11T05:50:14.897Z,80.66
2023-02-11T05:54:17.640Z,81.42
2023-02-11T05:58:19.020Z,80.82
2023-02-11T06:02:20.379Z,80.55
2023-02-11T06:06:21.739Z,80.24
2023-02-11T06:10:24.481Z,80.05
2023-02-11T06:14:25.830Z,80.54
2023-02-11T06:18:27.203Z,80.45
2023-02-11T06:22:28.735Z,80.19
2023-02-11T06:26:32.473Z,80.85
2023-02-11T06:30:33.876Z,80.80
2023-02-11T06:34:35.528Z,80.50
2023-02-11T06:38:36.876Z,81.33
2023-02-11T06:42:39.738Z,80.76
2023-02-11T06:46:41.151Z,80.86
2023-02-11T06:50:42.513Z,81.28
2023-02-11T06:54:43.865Z,80.42
2023-02-11T06:58:46.610Z,79.99
2023-02-11T07:02:48.027Z,81.02
2023-02-11T07:06:49.489Z,80.58
2023-02-11T07:10:50.846Z,80.39
2023-02-11T07:14:53.550Z,79.35
2023-02-11T07:18:54.900Z,79.02
2023-02-11T07:22:56.247Z,79.99
2023-02-11T07:26:57.680Z,80.00
2023-02-11T07:31:05.518Z,79.36
2023-02-11T07:35:07.216Z,78.73
2023-02-11T07:39:08.597Z,77.20
2023-02-11T07:43:09.944Z,76.41
2023-02-11T07:47:12.662Z,75.62
2023-02-11T07:51:14.665Z,74.63
2023-02-11T07:55:16.067Z,75.47
2023-02-11T07:59:17.425Z,75.37
2023-02-11T08:03:20.152Z,75.58
2023-02-11T08:07:21.499Z,75.80
2023-02-11T08:11:23.719Z,75.32
2023-02-11T08:15:25.117Z,75.38
2023-02-11T08:19:27.814Z,74.18
2023-02-11T08:23:29.204Z,74.25
2023-02-11T08:27:30.609Z,73.27
2023-02-11T08:31:35.201Z,72.65
2023-02-11T08:35:38.022Z,72.40
2023-02-11T08:39:39.378Z,71.70
2023-02-11T08:43:41.191Z,70.83
2023-02-11T08:47:42.532Z,70.64
2023-02-11T08:51:45.391Z,72.05
2023-02-11T08:55:48.795Z,71.98
2023-02-11T08:59:50.304Z,72.13
2023-02-11T09:03:51.741Z,72.31
2023-02-11T09:07:54.496Z,72.84
2023-02-11T09:11:56.076Z,73.01
2023-02-11T09:15:57.694Z,73.65
2023-02-11T09:19:59.135Z,72.83
2023-02-11T09:24:01.902Z,72.31
2023-02-11T09:28:03.427Z,72.47
2023-02-11T09:32:07.250Z,72.31
2023-02-11T09:36:09.967Z,71.90
2023-02-11T09:40:12.842Z,73.30
2023-02-11T09:44:17.560Z,72.42
2023-02-11T09:48:20.180Z,72.21
2023-02-11T09:52:29.827Z,71.97
2023-02-11T09:56:32.583Z,72.21
2023-02-11T10:00:37.075Z,71.79
2023-02-11T10:04:46.154Z,72.28
2023-02-11T10:08:52.774Z,71.24
2023-02-11T10:13:01.608Z,71.02
2023-02-11T10:17:12.266Z,69.88
2023-02-11T10:21:19.583Z,69.27
2023-02-11T10:25:22.153Z,69.59
2023-02-11T10:29:33.415Z,69.57
2023-02-11T10:33:39.251Z,70.07
2023-02-11T10:37:42.423Z,69.89
2023-02-11T10:41:47.367Z,69.52
2023-02-11T10:45:51.256Z,69.59
2023-02-11T10:49:52.593Z,69.88
2023-02-11T10:54:13.555Z,69.68
2023-02-11T10:58:23.142Z,69.67
2023-02-11T11:02:28.113Z,69.98
2023-02-11T11:06:30.673Z,69.51
2023-02-11T11:10:36.686Z,70.10
2023-02-11T11:14:38.042Z,69.91
2023-02-11T11:18:41.855Z,70.13
2023-02-11T11:22:43.547Z,69.88
2023-02-11T11:26:46.152Z,69.86
2023-02-11T11:30:47.749Z,69.83
2023-02-11T11:34:51.410Z,69.43
2023-02-11T11:38:55.598Z,68.63
2023-02-11T11:43:03.294Z,67.65
2023-02-11T11:47:28.759Z,66.57
2023-02-11T11:51:32.315Z,66.03
2023-02-11T11:55:37.900Z,65.42
2023-02-11T11:59:39.357Z,64.63
2023-02-11T12:03:55.599Z,64.38
2023-02-11T12:08:03.788Z,63.87
2023-02-11T12:12:10.357Z,63.26
2023-02-11T12:16:17.515Z,62.71
2023-02-11T12:20:30.738Z,62.83
2023-02-11T12:24:45.030Z,63.40
2023-02-11T12:28:53.651Z,62.49
2023-02-11T12:32:59.895Z,63.15
2023-02-11T12:37:06.199Z,63.22
2023-02-11T12:41:23.607Z,64.24
2023-02-11T12:45:31.267Z,64.26
2023-02-11T12:49:39.321Z,63.89
2023-02-11T12:53:49.846Z,64.13
2023-02-11T12:57:54.910Z,64.28
2023-02-11T13:01:57.610Z,64.15
2023-02-11T13:06:01.807Z,63.82
2023-02-11T13:10:05.723Z,64.44
2023-02-11T13:14:12.590Z,64.04
2023-02-11T13:18:25.153Z,63.73
2023-02-11T13:22:28.637Z,63.70
2023-02-11T13:26:33.381Z,64.31
2023-02-11T13:30:37.202Z,64.12
2023-02-11T13:34:59.555Z,64.75
2023-02-11T13:39:02.403Z,64.42
2023-02-11T13:43:04.983Z,64.78
2023-02-11T13:47:07.898Z,64.20
2023-02-11T13:51:10.883Z,64.49
2023-02-11T13:55:19.901Z,64.12
2023-02-11T13:59:36.117Z,63.24
2023-02-11T14:03:39.322Z,62.60
2023-02-11T14:08:00.702Z,62.79
2023-02-11T14:12:22.616Z,61.91
2023-02-11T14:16:36.918Z,62.68
2023-02-11T14:20:43.008Z,63.62
2023-02-11T14:24:49.671Z,62.78
2023-02-11T14:28:52.322Z,62.40
2023-02-11T14:33:06.876Z,62.47
2023-02-11T14:37:14.269Z,61.76
2023-02-11T14:41:18.230Z,62.69
2023-02-11T14:45:21.256Z,62.44
2023-02-11T14:49:25.003Z,62.91
2023-02-11T14:53:28.818Z,62.84
2023-02-11T14:57:30.140Z,64.16
2023-02-11T15:01:32.624Z,63.67
2023-02-11T15:05:34.611Z,63.93
2023-02-11T15:09:40.801Z,66.44
2023-02-11T15:13:42.598Z,66.77
2023-02-11T15:17:44.267Z,67.56
2023-02-11T15:21:46.086Z,68.07
2023-02-11T15:25:48.787Z,68.63
2023-02-11T15:29:50.531Z,69.79
2023-02-11T15:33:52.486Z,69.98
2023-02-11T15:37:54.272Z,69.98
2023-02-11T15:41:57.202Z,71.04
2023-02-11T15:45:59.892Z,71.88
2023-02-11T15:50:01.622Z,72.74
2023-02-11T15:54:04.141Z,73.68
2023-02-11T15:58:09.302Z,74.53
2023-02-11T16:02:15.924Z,74.86
2023-02-11T16:06:21.310Z,74.85
2023-02-11T16:10:24.310Z,75.90
2023-02-11T16:14:30.250Z,77.70
2023-02-11T16:18:39.655Z,77.70
2023-02-11T16:22:45.833Z,77.77
2023-02-11T16:26:48.727Z,78.08
2023-02-11T16:30:53.858Z,78.30
2023-02-11T16:34:56.501Z,79.10
2023-02-11T16:38:57.889Z,79.06
2023-02-11T16:42:59.226Z,79.58
2023-02-11T16:47:02.872Z,80.36
2023-02-11T16:51:04.397Z,80.72
2023-02-11T16:55:06.159Z,80.53
2023-02-11T16:59:07.527Z,80.87
2023-02-11T17:03:15.094Z,81.68
2023-02-11T17:07:16.412Z,81.23
2023-02-11T17:11:17.727Z,81.42
2023-02-11T17:15:19.061Z,81.62
2023-02-11T17:19:21.762Z,81.88
2023-02-11T17:23:23.097Z,81.92
2023-02-11T17:27:24.425Z,81.42
2023-02-11T17:31:25.841Z,82.46
2023-02-11T17:35:28.600Z,82.82
2023-02-11T17:39:29.976Z,83.14
2023-02-11T17:43:31.565Z,83.06
2023-02-11T17:47:33.011Z,82.98
2023-02-11T17:51:36.666Z,83.34
2023-02-11T17:55:37.994Z,83.40
2023-02-11T17:59:39.548Z,83.35
2023-02-11T18:03:40.930Z,82.95
2023-02-11T18:07:43.625Z,83.62
2023-02-11T18:11:45.276Z,83.26
2023-02-11T18:15:46.700Z,83.69
2023-02-11T18:19:48.458Z,84.06
2023-02-11T18:23:51.216Z,83.89
2023-02-11T18:27:52.550Z,84.07
2023-02-11T18:31:54.799Z,83.90
2023-02-11T18:35:56.170Z,83.92
2023-02-11T18:39:58.864Z,85.23
2023-02-11T18:44:00.208Z,85.03
2023-02-11T18:48:01.536Z,84.35
2023-02-11T18:52:03.531Z,84.65
2023-02-11T18:56:10.277Z,84.51
2023-02-11T19:00:12.223Z,84.89
2023-02-11T19:04:13.677Z,85.19
2023-02-11T19:08:15.353Z,85.28
2023-02-11T19:12:18.021Z,85.17
2023-02-11T19:16:19.401Z,85.51
2023-02-11T19:20:20.820Z,85.27
2023-02-11T19:24:22.855Z,85.45
2023-02-11T19:28:25.608Z,85.70
2023-02-11T19:32:27.018Z,85.64
2023-02-11T19:36:28.356Z,85.87
2023-02-11T19:40:29.724Z,85.56
2023-02-11T19:44:32.408Z,86.14
2023-02-11T19:48:33.785Z,85.47
2023-02-11T19:52:37.228Z,85.01
2023-02-11T19:56:38.583Z,85.53
2023-02-11T20:00:41.642Z,85.78
2023-02-11T20:04:42.976Z,86.10
2023-02-11T20:08:44.305Z,86.06
2023-02-11T20:12:45.641Z,85.01
2023-02-11T20:16:49.992Z,85.85
2023-02-11T20:20:51.618Z,86.88
2023-02-11T20:24:52.939Z,86.97
2023-02-11T20:28:55.100Z,86.67
2023-02-11T20:32:57.801Z,86.81
2023-02-11T20:36:59.127Z,86.93
2023-02-11T20:41:02.556Z,87.80
2023-02-11T20:45:04.110Z,87.49
2023-02-11T20:49:07.104Z,88.27
2023-02-11T20:53:08.437Z,87.59
2023-02-11T20:57:09.770Z,87.68
2023-02-11T21:01:12.508Z,87.63
2023-02-11T21:05:15.186Z,87.26
2023-02-11T21:09:17.714Z,87.05
2023-02-11T21:13:19.092Z,87.30
2023-02-11T21:17:20.703Z,87.27
2023-02-11T21:21:23.559Z,87.13
2023-02-11T21:25:24.919Z,87.31
2023-02-11T21:29:26.266Z,87.34
2023-02-11T21:33:28.242Z,87.67
2023-02-11T21:37:31.165Z,87.90
2023-02-11T21:41:32.813Z,88.53
2023-02-11T21:45:34.151Z,89.55
2023-02-11T21:49:35.468Z,89.68
2023-02-11T21:53:38.520Z,90.15
2023-02-11T21:57:39.919Z,89.30
2023-02-11T22:01:41.262Z,89.27
2023-02-11T22:05:42.617Z,88.84
2023-02-11T22:09:45.288Z,89.90
2023-02-11T22:13:46.883Z,89.12
2023-02-11T22:17:48.216Z,88.78
2023-02-11T22:21:49.740Z,88.89
2023-02-11T22:25:52.735Z,89.16
2023-02-11T22:29:54.246Z,89.00
2023-02-11T22:33:55.856Z,88.84
2023-02-11T22:37:57.199Z,88.69
2023-02-11T22:41:59.892Z,88.91
2023-02-11T22:46:01.704Z,89.19
2023-02-11T22:50:03.058Z,88.41
2023-02-11T22:54:05.291Z,88.10
2023-02-11T22:58:07.982Z,88.44
2023-02-11T23:02:09.428Z,88.58
2023-02-11T23:06:11.390Z,88.28
2023-02-11T23:10:12.715Z,88.47
2023-02-11T23:14:15.413Z,88.59
2023-02-11T23:18:16.760Z,88.27
2023-02-11T23:22:18.099Z,88.79
2023-02-11T23:26:19.486Z,89.47
2023-02-11T23:30:22.183Z,89.11
2023-02-11T23:34:23.658Z,88.86
2023-02-11T23:38:25.090Z,89.40
2023-02-11T23:42:26.482Z,88.84
2023-02-11T23:46:29.351Z,89.07
2023-02-11T23:50:30.757Z,89.25
2023-02-11T23:54:32.351Z,89.21
2023-02-11T23:58:33.740Z,89.48
